SHT4J EGLL-EGAC
Flight info
| Callsign | SHT4J |
|---|---|
| Flight time | 0h 51m |
| Altitude | 38000 |
| Route | ULTIB T420 TNT UL28 RODOL UM65 TENSO L603 BELOX DCT REMSI DCT NINEB M148 MAGEE |
| Aircraft | A319/M-SDE3FGHIRWY/LB1 |
Departure
| Time | 2026-05-07 17:26 |
|---|---|
| Airport | London Heathrow Airport (EGLL) |
Arrival
| Time | 2026-05-07 18:18 |
|---|---|
| Airport | George Best Belfast City Airport (EGAC) |
| Time | Latitude | Longitude | Altitude | Speed | Heading |
|---|---|---|---|---|---|
| 2026-05-07 17:07 | 51.47361 | -0.48589 | 86 ft | 0 kts | 270° |
| 2026-05-07 17:16 | 51.47361 | -0.48571 | 87 ft | 4 kts | 269° |
| 2026-05-07 17:16 | 51.47362 | -0.48528 | 86 ft | 4 kts | 261° |
| 2026-05-07 17:17 | 51.47370 | -0.48489 | 89 ft | 4 kts | 228° |
| 2026-05-07 17:17 | 51.47383 | -0.48475 | 88 ft | 0 kts | 179° |
| 2026-05-07 17:21 | 51.47381 | -0.48475 | 88 ft | 1 kts | 179° |
| 2026-05-07 17:21 | 51.47355 | -0.48474 | 87 ft | 6 kts | 179° |
| 2026-05-07 17:21 | 51.47300 | -0.48473 | 86 ft | 10 kts | 179° |
| 2026-05-07 17:21 | 51.47211 | -0.48472 | 86 ft | 15 kts | 180° |
| 2026-05-07 17:22 | 51.47088 | -0.48472 | 87 ft | 20 kts | 180° |
| 2026-05-07 17:22 | 51.46934 | -0.48471 | 86 ft | 24 kts | 180° |
| 2026-05-07 17:22 | 51.46782 | -0.48469 | 86 ft | 15 kts | 179° |
| 2026-05-07 17:22 | 51.46671 | -0.48468 | 86 ft | 17 kts | 180° |
| 2026-05-07 17:23 | 51.46591 | -0.48467 | 87 ft | 1 kts | 179° |
| 2026-05-07 17:23 | 51.46585 | -0.48467 | 87 ft | 0 kts | 179° |
| 2026-05-07 17:23 | 51.46583 | -0.48467 | 87 ft | 1 kts | 179° |
| 2026-05-07 17:23 | 51.46562 | -0.48467 | 87 ft | 4 kts | 180° |
| 2026-05-07 17:24 | 51.46494 | -0.48449 | 88 ft | 11 kts | 142° |
| 2026-05-07 17:24 | 51.46480 | -0.48364 | 87 ft | 13 kts | 91° |
| 2026-05-07 17:24 | 51.46479 | -0.48223 | 89 ft | 11 kts | 92° |
| 2026-05-07 17:24 | 51.46479 | -0.48163 | 90 ft | 0 kts | 89° |
| 2026-05-07 17:25 | 51.46479 | -0.48145 | 88 ft | 6 kts | 89° |
| 2026-05-07 17:25 | 51.46480 | -0.47666 | 86 ft | 88 kts | 89° |
| 2026-05-07 17:26 | 51.46484 | -0.46311 | 92 ft | 160 kts | 90° |
| 2026-05-07 17:26 | 51.46482 | -0.44303 | 486 ft | 182 kts | 95° |
| 2026-05-07 17:26 | 51.46469 | -0.42296 | 1562 ft | 182 kts | 89° |
| 2026-05-07 17:26 | 51.46840 | -0.40307 | 2146 ft | 209 kts | 59° |
| 2026-05-07 17:27 | 51.47809 | -0.38396 | 2712 ft | 233 kts | 49° |
| 2026-05-07 17:27 | 51.48922 | -0.36325 | 3291 ft | 256 kts | 50° |
| 2026-05-07 17:27 | 51.50097 | -0.34099 | 4259 ft | 263 kts | 50° |
| 2026-05-07 17:27 | 51.51281 | -0.31840 | 5316 ft | 267 kts | 50° |
| 2026-05-07 17:28 | 51.52382 | -0.29411 | 5792 ft | 270 kts | 63° |
| 2026-05-07 17:28 | 51.53047 | -0.26608 | 5966 ft | 269 kts | 69° |
| 2026-05-07 17:28 | 51.54082 | -0.24126 | 6002 ft | 269 kts | 43° |
| 2026-05-07 17:28 | 51.55692 | -0.22646 | 6006 ft | 269 kts | 16° |
| 2026-05-07 17:29 | 51.57547 | -0.22486 | 6005 ft | 270 kts | 349° |
| 2026-05-07 17:29 | 51.59365 | -0.23266 | 6034 ft | 271 kts | 346° |
| 2026-05-07 17:29 | 51.61103 | -0.23924 | 6036 ft | 272 kts | 344° |
| 2026-05-07 17:29 | 51.62857 | -0.25040 | 6036 ft | 272 kts | 332° |
| 2026-05-07 17:30 | 51.64518 | -0.26504 | 6036 ft | 272 kts | 330° |
| 2026-05-07 17:30 | 51.66160 | -0.28029 | 6037 ft | 272 kts | 329° |
| 2026-05-07 17:30 | 51.67776 | -0.29569 | 6036 ft | 272 kts | 329° |
| 2026-05-07 17:30 | 51.69400 | -0.31137 | 6036 ft | 272 kts | 329° |
| 2026-05-07 17:31 | 51.71039 | -0.32723 | 6612 ft | 278 kts | 329° |
| 2026-05-07 17:31 | 51.72699 | -0.34327 | 7151 ft | 277 kts | 328° |
| 2026-05-07 17:31 | 51.74357 | -0.35930 | 7694 ft | 279 kts | 328° |
| 2026-05-07 17:31 | 51.76009 | -0.37529 | 8258 ft | 282 kts | 328° |
| 2026-05-07 17:32 | 51.77700 | -0.39164 | 8809 ft | 284 kts | 328° |
| 2026-05-07 17:32 | 51.79410 | -0.40816 | 9404 ft | 287 kts | 328° |
| 2026-05-07 17:32 | 51.81130 | -0.42480 | 9994 ft | 290 kts | 327° |
| 2026-05-07 17:32 | 51.82901 | -0.44200 | 10541 ft | 303 kts | 327° |
| 2026-05-07 17:33 | 51.84749 | -0.45995 | 11097 ft | 318 kts | 327° |
| 2026-05-07 17:33 | 51.86685 | -0.47877 | 11645 ft | 330 kts | 327° |
| 2026-05-07 17:33 | 51.88674 | -0.49814 | 12230 ft | 336 kts | 327° |
| 2026-05-07 17:33 | 51.90686 | -0.51774 | 12806 ft | 340 kts | 327° |
| 2026-05-07 17:34 | 51.92724 | -0.53758 | 13388 ft | 343 kts | 327° |
| 2026-05-07 17:34 | 51.94787 | -0.55768 | 13903 ft | 348 kts | 327° |
| 2026-05-07 17:34 | 51.96868 | -0.57796 | 14022 ft | 349 kts | 327° |
| 2026-05-07 17:34 | 51.98952 | -0.59828 | 14048 ft | 349 kts | 327° |
| 2026-05-07 17:35 | 52.01035 | -0.61867 | 14046 ft | 349 kts | 327° |
| 2026-05-07 17:35 | 52.03111 | -0.63903 | 14044 ft | 349 kts | 327° |
| 2026-05-07 17:35 | 52.05194 | -0.65947 | 14059 ft | 349 kts | 327° |
| 2026-05-07 17:35 | 52.07274 | -0.67989 | 14143 ft | 350 kts | 327° |
| 2026-05-07 17:36 | 52.09359 | -0.70040 | 14648 ft | 351 kts | 327° |
| 2026-05-07 17:36 | 52.11454 | -0.72105 | 15168 ft | 353 kts | 327° |
| 2026-05-07 17:36 | 52.13552 | -0.74179 | 15704 ft | 354 kts | 327° |
| 2026-05-07 17:36 | 52.15667 | -0.76269 | 16230 ft | 356 kts | 327° |
| 2026-05-07 17:37 | 52.17794 | -0.78369 | 16781 ft | 358 kts | 327° |
| 2026-05-07 17:37 | 52.19929 | -0.80478 | 17328 ft | 360 kts | 327° |
| 2026-05-07 17:37 | 52.22081 | -0.82603 | 17895 ft | 362 kts | 327° |
| 2026-05-07 17:37 | 52.24241 | -0.84739 | 18449 ft | 364 kts | 327° |
| 2026-05-07 17:38 | 52.26387 | -0.86867 | 18951 ft | 366 kts | 327° |
| 2026-05-07 17:38 | 52.28573 | -0.89037 | 19463 ft | 369 kts | 327° |
| 2026-05-07 17:38 | 52.30773 | -0.91226 | 19982 ft | 372 kts | 326° |
| 2026-05-07 17:38 | 52.32992 | -0.93433 | 20512 ft | 374 kts | 326° |
| 2026-05-07 17:39 | 52.35222 | -0.95658 | 21062 ft | 377 kts | 326° |
| 2026-05-07 17:39 | 52.37464 | -0.97899 | 21608 ft | 379 kts | 326° |
| 2026-05-07 17:39 | 52.39726 | -1.00163 | 22179 ft | 382 kts | 326° |
| 2026-05-07 17:39 | 52.42006 | -1.02444 | 22752 ft | 385 kts | 326° |
| 2026-05-07 17:40 | 52.44296 | -1.04738 | 23334 ft | 388 kts | 326° |
| 2026-05-07 17:40 | 52.46609 | -1.07059 | 23864 ft | 391 kts | 326° |
| 2026-05-07 17:40 | 52.48936 | -1.09397 | 24373 ft | 394 kts | 326° |
| 2026-05-07 17:40 | 52.51276 | -1.11751 | 24873 ft | 396 kts | 326° |
| 2026-05-07 17:41 | 52.53634 | -1.14124 | 25406 ft | 398 kts | 326° |
| 2026-05-07 17:41 | 52.55999 | -1.16504 | 25929 ft | 400 kts | 326° |
| 2026-05-07 17:41 | 52.58381 | -1.18901 | 26471 ft | 401 kts | 326° |
| 2026-05-07 17:41 | 52.60753 | -1.21291 | 27010 ft | 402 kts | 326° |
| 2026-05-07 17:42 | 52.63148 | -1.23712 | 27577 ft | 403 kts | 326° |
| 2026-05-07 17:42 | 52.65538 | -1.26133 | 28147 ft | 404 kts | 326° |
| 2026-05-07 17:42 | 52.67931 | -1.28563 | 28730 ft | 404 kts | 326° |
| 2026-05-07 17:42 | 52.70330 | -1.31001 | 29323 ft | 404 kts | 326° |
| 2026-05-07 17:43 | 52.72722 | -1.33432 | 29929 ft | 404 kts | 326° |
| 2026-05-07 17:43 | 52.75118 | -1.35873 | 30471 ft | 404 kts | 326° |
| 2026-05-07 17:43 | 52.77504 | -1.38307 | 30997 ft | 404 kts | 327° |
| 2026-05-07 17:43 | 52.79891 | -1.40742 | 31532 ft | 403 kts | 327° |
| 2026-05-07 17:44 | 52.82272 | -1.43176 | 32080 ft | 401 kts | 327° |
| 2026-05-07 17:44 | 52.84639 | -1.45601 | 32634 ft | 400 kts | 327° |
| 2026-05-07 17:44 | 52.87001 | -1.48022 | 33209 ft | 397 kts | 327° |
| 2026-05-07 17:44 | 52.89333 | -1.50408 | 33784 ft | 394 kts | 327° |
| 2026-05-07 17:45 | 52.91667 | -1.52801 | 34331 ft | 391 kts | 326° |
| 2026-05-07 17:45 | 52.93964 | -1.55165 | 34828 ft | 386 kts | 326° |
| 2026-05-07 17:45 | 52.96235 | -1.57508 | 35343 ft | 381 kts | 326° |
| 2026-05-07 17:45 | 52.98470 | -1.59819 | 35825 ft | 377 kts | 326° |
| 2026-05-07 17:46 | 53.00699 | -1.62130 | 36099 ft | 379 kts | 326° |
| 2026-05-07 17:46 | 53.02946 | -1.64463 | 36282 ft | 383 kts | 326° |
| 2026-05-07 17:46 | 53.05213 | -1.66817 | 36516 ft | 385 kts | 326° |
| 2026-05-07 17:46 | 53.07496 | -1.69186 | 36757 ft | 387 kts | 326° |
| 2026-05-07 17:47 | 53.09787 | -1.71567 | 36990 ft | 389 kts | 326° |
| 2026-05-07 17:47 | 53.12081 | -1.73951 | 37229 ft | 390 kts | 326° |
| 2026-05-07 17:47 | 53.14364 | -1.76323 | 37474 ft | 392 kts | 326° |
| 2026-05-07 17:47 | 53.16706 | -1.78763 | 37683 ft | 394 kts | 325° |
| 2026-05-07 17:48 | 53.19031 | -1.81196 | 37905 ft | 395 kts | 325° |
| 2026-05-07 17:48 | 53.21341 | -1.83614 | 38018 ft | 400 kts | 325° |
| 2026-05-07 17:48 | 53.26167 | -1.88573 | 38031 ft | 414 kts | 327° |
| 2026-05-07 17:49 | 53.31277 | -1.93402 | 38024 ft | 429 kts | 329° |
| 2026-05-07 17:49 | 53.36461 | -1.98644 | 38031 ft | 439 kts | 316° |
| 2026-05-07 17:50 | 53.38473 | -2.02442 | 38023 ft | 437 kts | 300° |
| 2026-05-07 17:50 | 53.40050 | -2.06802 | 38029 ft | 438 kts | 298° |
| 2026-05-07 17:50 | 53.43152 | -2.15601 | 38026 ft | 439 kts | 298° |
| 2026-05-07 17:51 | 53.46246 | -2.24439 | 38019 ft | 439 kts | 298° |
| 2026-05-07 17:51 | 53.49328 | -2.33272 | 38014 ft | 439 kts | 298° |
| 2026-05-07 17:52 | 53.52409 | -2.42115 | 38016 ft | 439 kts | 297° |
| 2026-05-07 17:52 | 53.55490 | -2.50979 | 38007 ft | 439 kts | 297° |
| 2026-05-07 17:53 | 53.58545 | -2.59798 | 38020 ft | 439 kts | 297° |
| 2026-05-07 17:53 | 53.61607 | -2.68675 | 38018 ft | 438 kts | 297° |
| 2026-05-07 17:54 | 53.64490 | -2.77056 | 38012 ft | 438 kts | 297° |
| 2026-05-07 17:54 | 53.67533 | -2.85944 | 37912 ft | 436 kts | 297° |
| 2026-05-07 17:55 | 53.69050 | -2.90384 | 37419 ft | 436 kts | 297° |
| 2026-05-07 17:55 | 53.70563 | -2.94827 | 36871 ft | 437 kts | 297° |
| 2026-05-07 17:55 | 53.72074 | -2.99276 | 36253 ft | 438 kts | 297° |
| 2026-05-07 17:55 | 53.73586 | -3.03741 | 35777 ft | 437 kts | 297° |
| 2026-05-07 17:56 | 53.75088 | -3.08177 | 35348 ft | 434 kts | 297° |
| 2026-05-07 17:56 | 53.76583 | -3.12595 | 34931 ft | 431 kts | 297° |
| 2026-05-07 17:56 | 53.78067 | -3.16984 | 34566 ft | 427 kts | 297° |
| 2026-05-07 17:56 | 53.79537 | -3.21336 | 34198 ft | 423 kts | 296° |
| 2026-05-07 17:57 | 53.80984 | -3.25630 | 33772 ft | 419 kts | 296° |
| 2026-05-07 17:57 | 53.81936 | -3.28458 | 33462 ft | 417 kts | 296° |
| 2026-05-07 17:57 | 53.83847 | -3.34150 | 32846 ft | 413 kts | 296° |
| 2026-05-07 17:57 | 53.85258 | -3.38366 | 32391 ft | 410 kts | 296° |
| 2026-05-07 17:58 | 53.86653 | -3.42546 | 31952 ft | 407 kts | 296° |
| 2026-05-07 17:58 | 53.88040 | -3.46707 | 31513 ft | 403 kts | 296° |
| 2026-05-07 17:58 | 53.89233 | -3.50969 | 31087 ft | 397 kts | 287° |
| 2026-05-07 17:58 | 53.90177 | -3.55349 | 30663 ft | 394 kts | 287° |
| 2026-05-07 17:59 | 53.91103 | -3.59648 | 30258 ft | 391 kts | 287° |
| 2026-05-07 17:59 | 53.92034 | -3.63970 | 29830 ft | 389 kts | 287° |
| 2026-05-07 17:59 | 53.92970 | -3.68313 | 29398 ft | 386 kts | 287° |
| 2026-05-07 17:59 | 53.93884 | -3.72568 | 29046 ft | 381 kts | 286° |
| 2026-05-07 18:00 | 53.94787 | -3.76774 | 28631 ft | 378 kts | 286° |
| 2026-05-07 18:00 | 53.95676 | -3.80909 | 28237 ft | 376 kts | 287° |
| 2026-05-07 18:00 | 53.96815 | -3.84897 | 27850 ft | 377 kts | 296° |
| 2026-05-07 18:00 | 53.98126 | -3.88732 | 27457 ft | 374 kts | 296° |
| 2026-05-07 18:01 | 53.99418 | -3.92538 | 27063 ft | 371 kts | 296° |
| 2026-05-07 18:01 | 54.00698 | -3.96330 | 26680 ft | 368 kts | 296° |
| 2026-05-07 18:01 | 54.01966 | -4.00090 | 26293 ft | 365 kts | 296° |
| 2026-05-07 18:01 | 54.03221 | -4.03820 | 25892 ft | 362 kts | 296° |
| 2026-05-07 18:02 | 54.05696 | -4.11206 | 25119 ft | 356 kts | 296° |
| 2026-05-07 18:02 | 54.07033 | -4.14748 | 24733 ft | 355 kts | 302° |
| 2026-05-07 18:02 | 54.08459 | -4.18166 | 24343 ft | 352 kts | 302° |
| 2026-05-07 18:03 | 54.09867 | -4.21555 | 23962 ft | 349 kts | 302° |
| 2026-05-07 18:03 | 54.11262 | -4.24923 | 23584 ft | 347 kts | 301° |
| 2026-05-07 18:03 | 54.12645 | -4.28272 | 23138 ft | 344 kts | 301° |
| 2026-05-07 18:03 | 54.14016 | -4.31601 | 22684 ft | 342 kts | 301° |
| 2026-05-07 18:04 | 54.15376 | -4.34900 | 22231 ft | 340 kts | 301° |
| 2026-05-07 18:04 | 54.16735 | -4.38192 | 21793 ft | 338 kts | 301° |
| 2026-05-07 18:04 | 54.18079 | -4.41455 | 21340 ft | 336 kts | 301° |
| 2026-05-07 18:04 | 54.19421 | -4.44715 | 21004 ft | 333 kts | 301° |
| 2026-05-07 18:05 | 54.20305 | -4.46864 | 20945 ft | 334 kts | 301° |
| 2026-05-07 18:05 | 54.21639 | -4.50118 | 20968 ft | 335 kts | 301° |
| 2026-05-07 18:05 | 54.22977 | -4.53391 | 20967 ft | 336 kts | 301° |
| 2026-05-07 18:05 | 54.24320 | -4.56672 | 20964 ft | 336 kts | 301° |
| 2026-05-07 18:06 | 54.26092 | -4.61004 | 20965 ft | 336 kts | 301° |
| 2026-05-07 18:06 | 54.26995 | -4.63219 | 20966 ft | 336 kts | 301° |
| 2026-05-07 18:06 | 54.28330 | -4.66498 | 20971 ft | 336 kts | 301° |
| 2026-05-07 18:06 | 54.29664 | -4.69782 | 20963 ft | 336 kts | 301° |
| 2026-05-07 18:07 | 54.30977 | -4.73017 | 20963 ft | 336 kts | 301° |
| 2026-05-07 18:07 | 54.32310 | -4.76305 | 20963 ft | 336 kts | 301° |
| 2026-05-07 18:07 | 54.33642 | -4.79594 | 20970 ft | 336 kts | 301° |
| 2026-05-07 18:07 | 54.34972 | -4.82878 | 20962 ft | 335 kts | 300° |
| 2026-05-07 18:08 | 54.36302 | -4.86168 | 20959 ft | 335 kts | 300° |
| 2026-05-07 18:08 | 54.37631 | -4.89459 | 20955 ft | 335 kts | 300° |
| 2026-05-07 18:08 | 54.38956 | -4.92747 | 20956 ft | 335 kts | 300° |
| 2026-05-07 18:08 | 54.40283 | -4.96051 | 20968 ft | 335 kts | 300° |
| 2026-05-07 18:09 | 54.41601 | -4.99344 | 20961 ft | 335 kts | 300° |
| 2026-05-07 18:09 | 54.42922 | -5.02643 | 20959 ft | 335 kts | 300° |
| 2026-05-07 18:09 | 54.44243 | -5.05936 | 20959 ft | 335 kts | 300° |
| 2026-05-07 18:09 | 54.45569 | -5.09222 | 20887 ft | 333 kts | 300° |
| 2026-05-07 18:10 | 54.46896 | -5.12494 | 20671 ft | 334 kts | 300° |
| 2026-05-07 18:10 | 54.48220 | -5.15763 | 20354 ft | 332 kts | 300° |
| 2026-05-07 18:10 | 54.49533 | -5.19019 | 19924 ft | 331 kts | 300° |
| 2026-05-07 18:10 | 54.50838 | -5.22260 | 19427 ft | 329 kts | 300° |
| 2026-05-07 18:11 | 54.52138 | -5.25490 | 18937 ft | 327 kts | 300° |
| 2026-05-07 18:11 | 54.53430 | -5.28706 | 18455 ft | 325 kts | 300° |
| 2026-05-07 18:11 | 54.54694 | -5.31853 | 17949 ft | 323 kts | 300° |
| 2026-05-07 18:11 | 54.56137 | -5.34807 | 17378 ft | 326 kts | 314° |
| 2026-05-07 18:12 | 54.57935 | -5.37274 | 16366 ft | 333 kts | 319° |
| 2026-05-07 18:12 | 54.59799 | -5.39704 | 15390 ft | 338 kts | 319° |
| 2026-05-07 18:12 | 54.61683 | -5.42161 | 14434 ft | 340 kts | 319° |
| 2026-05-07 18:12 | 54.63573 | -5.44634 | 13485 ft | 341 kts | 319° |
| 2026-05-07 18:13 | 54.65464 | -5.47104 | 12463 ft | 340 kts | 319° |
| 2026-05-07 18:13 | 54.67352 | -5.49576 | 11469 ft | 339 kts | 319° |
| 2026-05-07 18:13 | 54.69208 | -5.52062 | 10502 ft | 336 kts | 315° |
| 2026-05-07 18:13 | 54.70788 | -5.54983 | 9532 ft | 330 kts | 305° |
| 2026-05-07 18:14 | 54.72287 | -5.57978 | 8516 ft | 329 kts | 309° |
| 2026-05-07 18:14 | 54.73815 | -5.60902 | 7525 ft | 325 kts | 307° |
| 2026-05-07 18:14 | 54.74922 | -5.64209 | 6570 ft | 315 kts | 284° |
| 2026-05-07 18:14 | 54.75105 | -5.67897 | 5581 ft | 306 kts | 260° |
| 2026-05-07 18:15 | 54.74391 | -5.71308 | 4601 ft | 301 kts | 237° |
| 2026-05-07 18:15 | 54.72952 | -5.73891 | 3601 ft | 299 kts | 216° |
| 2026-05-07 18:15 | 54.71249 | -5.75940 | 2622 ft | 297 kts | 214° |
| 2026-05-07 18:15 | 54.69588 | -5.77916 | 2175 ft | 279 kts | 213° |
| 2026-05-07 18:16 | 54.68065 | -5.79747 | 2050 ft | 255 kts | 214° |
| 2026-05-07 18:16 | 54.66667 | -5.81433 | 1728 ft | 236 kts | 214° |
| 2026-05-07 18:16 | 54.65426 | -5.82938 | 1024 ft | 195 kts | 214° |
| 2026-05-07 18:16 | 54.64419 | -5.84174 | 575 ft | 162 kts | 211° |
| 2026-05-07 18:17 | 54.63577 | -5.85188 | 386 ft | 136 kts | 211° |
| 2026-05-07 18:17 | 54.62824 | -5.86046 | 136 ft | 124 kts | 212° |
| 2026-05-07 18:17 | 54.62141 | -5.86855 | 20 ft | 106 kts | 212° |
| 2026-05-07 18:17 | 54.61688 | -5.87401 | 20 ft | 60 kts | 216° |
| 2026-05-07 18:18 | 54.61430 | -5.87712 | 12 ft | 42 kts | 214° |
| 2026-05-07 18:18 | 54.61272 | -5.87696 | 15 ft | 17 kts | 126° |
| 2026-05-07 18:18 | 54.61269 | -5.87582 | 19 ft | 9 kts | 45° |
| 2026-05-07 18:18 | 54.61328 | -5.87513 | 20 ft | 10 kts | 36° |
| 2026-05-07 18:19 | 54.61373 | -5.87458 | 21 ft | 0 kts | 36° |
| 2026-05-07 18:19 | 54.61376 | -5.87454 | 21 ft | 2 kts | 36° |
| 2026-05-07 18:19 | 54.61390 | -5.87430 | 21 ft | 4 kts | 51° |
| 2026-05-07 18:19 | 54.61414 | -5.87375 | 21 ft | 7 kts | 52° |
| 2026-05-07 18:20 | 54.61447 | -5.87326 | 21 ft | 6 kts | 37° |
| 2026-05-07 18:20 | 54.61478 | -5.87286 | 21 ft | 5 kts | 36° |
| 2026-05-07 18:20 | 54.61506 | -5.87252 | 21 ft | 5 kts | 37° |
| 2026-05-07 18:20 | 54.61495 | -5.87215 | 21 ft | 4 kts | 147° |
| 2026-05-07 18:21 | 54.61473 | -5.87197 | 24 ft | 0 kts | 155° |
| 2026-05-07 18:21 | 54.61467 | -5.87192 | 23 ft | 1 kts | 156° |
| 2026-05-07 18:21 | 54.61461 | -5.87188 | 21 ft | 0 kts | 157° |